Startpagina
METAR-TAF:

METAR-TAF

Vliegvelden :

Luchthaven Larnaca

Larnaca, Cyprus

breedte: 34-53N, lengte: 033-38E, hoogte: 2 m

Actueel weer

Dit bericht is 7 minuten geleden gemaakt, om 12:00 UTC
Wind 10 kt uit het oostnoordoosten
Temperatuur 20°C
Vochtigheid 53%
Druk 1016 hPa
Zicht 10 km of meer
Weinig wolken op 2500 ft
Weinig wolken op 3000 ft, Stapelwolken.
Gebroken wolken op 4800 ft

METAR: LCLK 161200Z 06010KT 9999 FEW025 FEW030TCU BKN048 20/10 Q1016 NOSIG

Tijdstip: 14:07 (12:07 UTC)

Verwachting

Dit bericht is 37 minuten geleden gemaakt, om 11:30 UTC
Verwachting geldig van 16 om 12 UTC tot 17 om 12 UTC
Wind 12 kt uit het noordoosten
Zicht 10 km of meer
Weinig wolken op 2500 ft
Wijzigt naar
van 16 om 15 UTC tot 16 om 19 UTC
Wind 7 kt uit het noordnoordwesten
Wijzigt naar
van 17 om 06 UTC tot 17 om 10 UTC
Wind 12 kt uit het oosten

TAF: LCLK 161130Z 1612/1712 04012KT 9999 FEW025 BECMG 1615/1619 33007KT BECMG 1706/1710 09012KT

Waarnemingen en weersverwachtingen van meer dan 4000 vliegvelden (METAR en TAF).

De beschikbare stations zijn de gele en rode punten op de kaart.

Ga met uw muis naar het station om de naam te zien.

Klik dan om waarnemingen en weersverwachtingen te zien.

kaart wijzigen: klik op de groene knoppen met een zwart kruis om in te zoomen, op de groene knop met een streepje om uit te zoomen of op de groene pijlen voor aangrenzende kaarten.


METAR-TAF: